Time;durP1;ratioP1;P1;durP2;ratioP2;P2;SDS_P1;SDS_P2;PMS_P1;PMS_P2;Temp;Humidity;BMP_temperature;BMP_pressure;BME280_temperature;BME280_humidity;BME280_pressure;Samples;Min_cycle;Max_cycle;Signal;HPM_P1;HPM_P2
2023/10/10 00:00:04;;;;;;;7.80;3.35;;;14.90;99.90;;;;;;4963177;28;20055;-67
2023/10/10 00:02:31;;;;;;;8.32;3.15;;;14.90;99.90;;;;;;4940965;28;20494;-68
2023/10/10 00:05:02;;;;;;;7.97;3.50;;;15.00;99.90;;;;;;4965660;28;20141;-68
2023/10/10 00:07:28;;;;;;;12.98;4.10;;;15.00;99.90;;;;;;4963282;28;20123;-69
2023/10/10 00:09:55;;;;;;;10.77;3.83;;;14.90;99.90;;;;;;4947838;28;20197;-66
2023/10/10 00:12:29;;;;;;;11.85;3.63;;;15.00;99.90;;;;;;4955066;28;20051;-69
2023/10/10 00:14:58;;;;;;;8.75;4.20;;;15.00;99.90;;;;;;4963166;28;20057;-67
2023/10/10 00:17:34;;;;;;;8.55;3.83;;;14.90;99.90;;;;;;4965184;28;20573;-67
2023/10/10 00:20:15;;;;;;;12.90;4.50;;;15.00;99.90;;;;;;4966117;28;20078;-68
2023/10/10 00:22:43;;;;;;;8.98;4.25;;;15.00;99.90;;;;;;4956100;28;20132;-68
2023/10/10 00:25:12;;;;;;;12.40;5.00;;;15.00;99.90;;;;;;4962802;28;20348;-69
2023/10/10 00:27:43;;;;;;;14.75;4.75;;;15.00;99.90;;;;;;4955717;28;20035;-67
2023/10/10 00:30:11;;;;;;;14.25;5.68;;;15.00;99.90;;;;;;4932830;28;20050;-67
2023/10/10 00:32:42;;;;;;;12.10;5.55;;;15.10;99.90;;;;;;4963562;28;20090;-66
2023/10/10 00:35:09;;;;;;;9.52;6.00;;;15.10;99.90;;;;;;4948317;28;20143;-67
2023/10/10 00:37:35;;;;;;;9.32;5.72;;;15.10;99.90;;;;;;4946160;28;20070;-67
2023/10/10 00:40:15;;;;;;;14.48;6.00;;;15.10;99.90;;;;;;4944977;29;20411;-66
2023/10/10 00:42:41;;;;;;;10.07;6.10;;;15.10;99.90;;;;;;4964250;28;20565;-67
2023/10/10 00:45:14;;;;;;;11.25;6.20;;;15.10;99.90;;;;;;4961465;28;20118;-67
2023/10/10 00:47:47;;;;;;;12.07;6.00;;;15.10;99.90;;;;;;4963593;28;20494;-67
2023/10/10 00:50:16;;;;;;;12.70;6.60;;;15.10;99.90;;;;;;4965570;28;20055;-67
2023/10/10 00:52:48;;;;;;;10.13;6.20;;;15.10;99.90;;;;;;4947542;28;20490;-66
2023/10/10 00:55:14;;;;;;;20.48;6.82;;;15.10;99.90;;;;;;4962086;28;20050;-67
2023/10/10 00:57:42;;;;;;;14.43;6.25;;;15.10;99.90;;;;;;4969681;28;20181;-67
2023/10/10 01:00:15;;;;;;;9.50;6.20;;;15.20;99.90;;;;;;4954451;28;20110;-67
2023/10/10 01:02:42;;;;;;;11.05;6.70;;;15.10;99.90;;;;;;4945101;29;20074;-67
2023/10/10 01:05:19;;;;;;;14.77;7.55;;;15.10;99.90;;;;;;4965053;28;20391;-67
2023/10/10 01:07:48;;;;;;;13.00;6.25;;;15.10;99.90;;;;;;4965581;28;20046;-67
2023/10/10 01:10:16;;;;;;;9.35;6.93;;;15.20;99.90;;;;;;4945501;28;20681;-68
2023/10/10 01:12:42;;;;;;;9.93;6.78;;;15.10;99.90;;;;;;4945225;29;20055;-67
2023/10/10 01:15:24;;;;;;;14.80;7.18;;;15.20;99.90;;;;;;4963437;28;20043;-69
2023/10/10 01:17:50;;;;;;;14.88;7.22;;;15.20;99.90;;;;;;4959941;28;20491;-66
2023/10/10 01:20:20;;;;;;;15.90;7.47;;;15.20;99.90;;;;;;4963947;28;20050;-67
2023/10/10 01:22:48;;;;;;;16.35;7.35;;;15.20;99.90;;;;;;4948041;28;20046;-68
2023/10/10 01:28:05;;;;;;;11.40;7.13;;;15.20;99.90;;;;;;4962214;28;20452;-68
2023/10/10 01:30:44;;;;;;;13.45;7.50;;;15.20;99.90;;;;;;4963955;28;20058;-66
2023/10/10 01:33:14;;;;;;;11.70;7.28;;;15.20;99.90;;;;;;4965008;28;20062;-69
2023/10/10 01:35:41;;;;;;;11.30;6.95;;;15.20;99.90;;;;;;4944647;28;20055;-67
2023/10/10 01:38:35;;;;;;;13.30;7.50;;;15.20;99.90;;;;;;4961278;28;20410;-66
2023/10/10 01:41:23;;;;;;;11.13;6.70;;;15.20;99.90;;;;;;4887872;29;20056;-67
2023/10/10 01:43:53;;;;;;;13.05;6.90;;;15.20;99.90;;;;;;4894471;29;20063;-69
2023/10/10 01:46:28;;;;;;;15.15;7.18;;;15.20;99.90;;;;;;4894594;29;20052;-67
2023/10/10 01:48:56;;;;;;;;;;;15.10;99.90;;;;;;4894371;29;20604;-67
2023/10/10 01:51:25;;;;;;;15.77;7.53;;;15.10;99.90;;;;;;4894034;29;20351;-67
2023/10/10 01:53:55;;;;;;;10.82;6.90;;;15.20;99.90;;;;;;4894087;29;20123;-67
2023/10/10 01:56:22;;;;;;;12.23;7.20;;;15.10;99.90;;;;;;4893983;29;20060;-68
2023/10/10 01:58:53;;;;;;;13.05;8.10;;;15.10;99.90;;;;;;4894066;29;20061;-67
2023/10/10 02:01:19;;;;;;;12.25;7.75;;;15.10;99.90;;;;;;4893512;29;20072;-67
2023/10/10 02:03:47;;;;;;;14.13;8.35;;;15.10;99.90;;;;;;4893987;29;20052;-68
2023/10/10 02:06:23;;;;;;;14.48;6.35;;;15.10;99.90;;;;;;4893243;29;20066;-68
2023/10/10 02:08:51;;;;;;;10.50;6.45;;;15.10;99.90;;;;;;4885646;29;20048;-69
2023/10/10 02:11:20;;;;;;;11.80;6.32;;;15.10;99.90;;;;;;4878157;29;20060;-67
2023/10/10 02:13:50;;;;;;;9.98;6.55;;;15.10;99.90;;;;;;4893941;29;20591;-67
2023/10/10 02:16:17;;;;;;;13.80;6.88;;;15.00;99.90;;;;;;4893755;29;20086;-67
2023/10/10 02:18:51;;;;;;;9.98;6.25;;;15.00;99.90;;;;;;4944382;28;20061;-67
2023/10/10 02:21:42;;;;;;;12.25;6.78;;;15.00;99.90;;;;;;4962715;28;20639;-67
2023/10/10 02:26:53;;;;;;;15.68;6.43;;;15.00;99.90;;;;;;4955423;28;20079;-67
2023/10/10 02:32:06;;;;;;;11.07;6.05;;;14.90;99.90;;;;;;4943988;29;20070;-66
2023/10/10 02:34:34;;;;;;;14.50;6.40;;;14.90;99.90;;;;;;4962611;28;20089;-67
2023/10/10 02:37:41;;;;;;;12.65;6.13;;;14.90;99.90;;;;;;4943188;29;20106;-67
2023/10/10 02:45:44;;;;;;;11.33;6.20;;;14.90;99.90;;;;;;4901715;29;20749;-67
2023/10/10 02:48:10;;;;;;;17.15;6.82;;;14.80;99.90;;;;;;4903994;29;20296;-66
2023/10/10 02:50:39;;;;;;;10.70;6.63;;;14.80;99.90;;;;;;4903741;29;20087;-67
2023/10/10 02:53:08;;;;;;;11.50;6.25;;;14.80;99.90;;;;;;4900424;29;20053;-68
2023/10/10 02:55:40;;;;;;;13.10;6.30;;;14.80;99.90;;;;;;4885025;29;20101;-67
2023/10/10 02:58:20;;;;;;;9.98;6.10;;;14.70;99.90;;;;;;4883413;29;20144;-67
2023/10/10 03:00:49;;;;;;;15.90;6.25;;;14.70;99.90;;;;;;4883908;29;20072;-66
2023/10/10 03:03:18;;;;;;;13.10;6.50;;;14.70;99.90;;;;;;4903336;29;20380;-66
2023/10/10 03:05:50;;;;;;;11.98;6.18;;;14.70;99.90;;;;;;4903598;29;20071;-68
2023/10/10 03:11:02;;;;;;;11.60;6.70;;;14.70;99.90;;;;;;4900375;29;20524;-67
2023/10/10 03:13:35;;;;;;;9.48;6.10;;;14.70;99.90;;;;;;4903794;29;20484;-67
2023/10/10 03:16:41;;;;;;;11.32;6.15;;;14.70;99.90;;;;;;4903303;29;20075;-66
2023/10/10 03:21:43;;;;;;;11.00;7.05;;;14.80;99.90;;;;;;4960396;28;20476;-66
2023/10/10 03:24:50;;;;;;;10.60;7.18;;;14.70;99.90;;;;;;4939604;28;20182;-67
2023/10/10 03:27:11;;;;;;;14.27;7.45;;;14.80;99.90;;;;;;4954144;28;20166;-68
2023/10/10 03:29:37;;;;;;;12.95;7.53;;;14.80;99.90;;;;;;4962892;28;20197;-67
2023/10/10 03:32:26;;;;;;;12.25;7.43;;;14.90;99.90;;;;;;4964682;28;20051;-67
2023/10/10 03:35:13;;;;;;;13.15;7.15;;;14.80;99.90;;;;;;4961250;28;20051;-67
2023/10/10 03:37:53;;;;;;;12.63;6.97;;;14.80;99.90;;;;;;4962313;28;20079;-69
2023/10/10 03:40:46;;;;;;;11.77;7.63;;;14.80;99.90;;;;;;4957206;28;20098;-66
2023/10/10 05:24:54;;;;;;;26.07;15.93;;;15.10;99.90;;;;;;4886759;29;20092;-66
2023/10/10 05:27:29;;;;;;;27.08;16.35;;;15.10;99.90;;;;;;4906882;29;20301;-67
2023/10/10 05:29:56;;;;;;;29.17;17.13;;;15.10;99.90;;;;;;4905129;29;20052;-67
2023/10/10 05:32:22;;;;;;;23.50;17.38;;;15.00;99.90;;;;;;4894358;29;20088;-66
2023/10/10 05:34:49;;;;;;;37.75;21.35;;;15.00;99.90;;;;;;4905745;29;20067;-67
2023/10/10 05:37:18;;;;;;;33.80;21.13;;;15.10;99.90;;;;;;4897982;29;20079;-67
2023/10/10 05:39:46;;;;;;;35.40;21.17;;;15.10;99.90;;;;;;4904209;29;20143;-66
2023/10/10 05:42:13;;;;;;;38.25;23.50;;;15.00;99.90;;;;;;4905556;29;20056;-66
2023/10/10 05:44:39;;;;;;;32.92;21.02;;;15.10;99.90;;;;;;4901913;29;20559;-67
2023/10/10 05:47:07;;;;;;;42.67;24.83;;;15.10;99.90;;;;;;4901573;29;20088;-66
2023/10/10 05:49:33;;;;;;;39.15;23.42;;;15.10;99.90;;;;;;4904073;29;20052;-66
2023/10/10 05:52:01;;;;;;;36.75;23.88;;;15.00;99.90;;;;;;4905030;29;20032;-67
2023/10/10 05:54:26;;;;;;;36.35;22.85;;;15.00;99.90;;;;;;4956384;28;20130;-65
2023/10/10 05:56:52;;;;;;;37.67;22.85;;;15.00;99.90;;;;;;4947038;28;20450;-66
2023/10/10 05:59:18;;;;;;;37.65;23.35;;;15.00;99.90;;;;;;4963867;28;20047;-66
2023/10/10 06:01:43;;;;;;;36.90;22.15;;;15.00;99.90;;;;;;4961794;28;20054;-66
2023/10/10 06:04:11;;;;;;;38.05;21.45;;;15.00;99.90;;;;;;4960989;28;20043;-67
2023/10/10 06:06:37;;;;;;;34.70;20.73;;;15.00;99.90;;;;;;4961503;28;20626;-67
2023/10/10 06:09:04;;;;;;;32.67;21.10;;;15.00;99.90;;;;;;4949228;29;20122;-67
2023/10/10 06:11:34;;;;;;;32.78;20.85;;;15.00;99.90;;;;;;4927850;29;20138;-67
2023/10/10 06:14:00;;;;;;;37.10;20.92;;;15.00;99.90;;;;;;4963620;28;20090;-66
2023/10/10 06:16:25;;;;;;;35.30;20.17;;;15.00;99.90;;;;;;4964029;28;20050;-66
2023/10/10 06:18:51;;;;;;;33.40;20.42;;;15.00;99.90;;;;;;4962904;28;20254;-66
2023/10/10 06:21:20;;;;;;;34.38;19.20;;;15.00;99.90;;;;;;4961065;28;20051;-67
2023/10/10 06:23:48;;;;;;;31.95;19.85;;;15.00;99.90;;;;;;4943700;29;20865;-66
2023/10/10 06:26:14;;;;;;;30.83;19.15;;;15.00;99.90;;;;;;4951040;28;20187;-66
2023/10/10 06:28:45;;;;;;;33.75;20.00;;;15.00;99.90;;;;;;4961293;28;20470;-67
2023/10/10 06:31:17;;;;;;;31.35;18.30;;;15.00;99.90;;;;;;4962578;28;20059;-67
2023/10/10 06:33:43;;;;;;;33.70;19.42;;;15.00;99.90;;;;;;4961174;28;20379;-65
2023/10/10 06:36:32;;;;;;;33.83;18.67;;;15.00;99.90;;;;;;4963609;28;20097;-66
2023/10/10 06:41:38;;;;;;;28.67;18.60;;;15.00;99.90;;;;;;4948930;28;20054;-66
2023/10/10 06:44:04;;;;;;;29.08;18.30;;;15.10;99.90;;;;;;4959424;28;20401;-66
2023/10/10 06:46:32;;;;;;;34.28;20.02;;;15.10;99.90;;;;;;4960413;28;20047;-66
2023/10/10 06:49:04;;;;;;;30.60;19.23;;;15.20;99.90;;;;;;4960298;28;20047;-67
2023/10/10 06:51:30;;;;;;;39.97;20.15;;;15.20;99.90;;;;;;4962951;28;20494;-66
2023/10/10 06:53:56;;;;;;;33.22;18.75;;;15.20;99.90;;;;;;4942555;28;20520;-67
2023/10/10 06:57:35;;;;;;;29.90;18.15;;;15.30;99.90;;;;;;4960225;28;20055;-66
2023/10/10 06:59:20;;;;;;;;;;;15.30;99.90;;;;;;4954209;28;20505;-67
2023/10/10 07:01:46;;;;;;;28.48;17.83;;;15.40;99.90;;;;;;4960612;28;19962;-67
2023/10/10 07:04:13;;;;;;;27.05;17.83;;;15.30;99.90;;;;;;4965900;28;20055;-67
2023/10/10 07:06:44;;;;;;;33.13;17.55;;;15.40;99.90;;;;;;4962149;28;20190;-67
2023/10/10 07:09:29;;;;;;;30.85;16.67;;;15.40;99.90;;;;;;4959904;28;20058;-67
2023/10/10 07:12:11;;;;;;;27.27;17.52;;;15.50;99.90;;;;;;4962615;28;20494;-67
2023/10/10 07:14:47;;;;;;;27.08;17.60;;;15.50;99.90;;;;;;4962803;28;20051;-68
2023/10/10 07:17:14;;;;;;;26.27;16.35;;;15.50;99.90;;;;;;4941587;29;20053;-67
2023/10/10 07:22:33;;;;;;;29.10;16.88;;;15.60;99.90;;;;;;4954400;28;20051;-67
2023/10/10 07:25:10;;;;;;;30.73;17.45;;;15.70;99.90;;;;;;4959649;28;20059;-67
2023/10/10 07:27:36;;;;;;;27.98;17.17;;;15.70;99.90;;;;;;4945601;28;20047;-67
2023/10/10 07:30:16;;;;;;;34.58;19.38;;;15.80;99.90;;;;;;4961352;28;20403;-67
2023/10/10 07:32:48;;;;;;;31.88;21.02;;;15.70;99.90;;;;;;4959464;28;20051;-68
2023/10/10 07:35:25;;;;;;;33.38;20.52;;;15.80;99.90;;;;;;4961913;28;20051;-66
2023/10/10 07:37:52;;;;;;;35.15;22.20;;;15.80;99.90;;;;;;4963345;28;20078;-67
2023/10/10 07:40:22;;;;;;;37.85;23.40;;;15.80;99.90;;;;;;4961111;28;20068;-66
2023/10/10 07:42:58;;;;;;;32.25;21.52;;;15.90;99.90;;;;;;4957234;28;20046;-67
2023/10/10 07:45:28;;;;;;;38.35;24.15;;;15.90;99.90;;;;;;4943701;28;20050;-67
2023/10/10 07:50:27;;;;;;;40.00;26.20;;;15.90;99.90;;;;;;4957281;28;20047;-66
2023/10/10 07:52:53;;;;;;;47.42;27.33;;;16.00;99.90;;;;;;4966199;28;20520;-68
2023/10/10 07:55:22;;;;;;;48.92;27.88;;;16.00;99.90;;;;;;4959717;28;20091;-67
2023/10/10 07:57:59;;;;;;;52.33;29.02;;;16.10;99.90;;;;;;4959505;28;20487;-67
2023/10/10 08:00:39;;;;;;;54.47;29.40;;;16.20;99.90;;;;;;4959452;28;20150;-67
2023/10/10 08:03:13;;;;;;;49.70;29.45;;;16.20;99.90;;;;;;4964569;28;20053;-65
2023/10/10 08:05:42;;;;;;;52.20;30.75;;;16.30;99.90;;;;;;4945803;28;20101;-69
2023/10/10 08:08:13;;;;;;;53.33;30.60;;;16.40;99.90;;;;;;4966353;28;20039;-67
2023/10/10 08:10:38;;;;;;;51.33;31.10;;;16.50;99.90;;;;;;4946609;28;20078;-67
2023/10/10 08:13:10;;;;;;;53.13;30.90;;;16.50;99.90;;;;;;4966609;28;20081;-67
2023/10/10 08:21:08;;;;;;;46.92;29.85;;;16.70;99.90;;;;;;4969112;28;20651;-67
2023/10/10 08:23:36;;;;;;;51.03;30.13;;;16.70;99.90;;;;;;4964507;28;20050;-68
2023/10/10 08:26:01;;;;;;;44.25;30.52;;;16.80;99.90;;;;;;4966082;28;20067;-67
2023/10/10 08:28:27;;;;;;;46.97;29.38;;;16.80;99.90;;;;;;4962254;28;20075;-67
2023/10/10 08:30:53;;;;;;;47.28;28.63;;;16.90;99.90;;;;;;4946074;29;20062;-67
2023/10/10 08:33:19;;;;;;;47.00;28.52;;;16.90;99.90;;;;;;4960626;28;20435;-67
2023/10/10 08:35:46;;;;;;;42.25;29.17;;;16.90;99.90;;;;;;4960953;28;20487;-66
2023/10/10 08:38:19;;;;;;;42.65;29.00;;;17.00;99.90;;;;;;4962543;28;20059;-66
2023/10/10 08:40:57;;;;;;;46.13;29.45;;;17.10;99.90;;;;;;4944652;28;20050;-68
2023/10/10 08:43:26;;;;;;;45.08;27.65;;;17.30;99.90;;;;;;4964515;28;20053;-66
2023/10/10 08:45:56;;;;;;;46.10;28.42;;;17.40;99.90;;;;;;4961260;28;20054;-70
2023/10/10 08:48:26;;;;;;;42.78;29.48;;;17.50;99.90;;;;;;4947026;28;20135;-68
2023/10/10 08:50:54;;;;;;;43.75;28.92;;;17.50;99.90;;;;;;4944509;29;20062;-68
2023/10/10 08:53:22;;;;;;;45.75;28.45;;;17.60;99.90;;;;;;4948548;28;20498;-68
2023/10/10 08:55:57;;;;;;;42.05;29.08;;;17.60;99.90;;;;;;4962919;28;20050;-68
2023/10/10 08:58:23;;;;;;;46.95;28.95;;;17.70;99.90;;;;;;4943915;28;20066;-67
2023/10/10 09:00:49;;;;;;;52.33;31.42;;;17.80;99.90;;;;;;4962387;28;20046;-67
2023/10/10 09:03:15;;;;;;;46.95;29.88;;;17.80;99.90;;;;;;4962094;28;20123;-69
2023/10/10 09:05:41;;;;;;;46.92;31.38;;;17.80;99.90;;;;;;4962850;28;20481;-69
2023/10/10 09:08:14;;;;;;;50.92;31.00;;;17.80;99.90;;;;;;4961777;28;20055;-69
2023/10/10 09:10:42;;;;;;;52.13;32.63;;;17.80;99.90;;;;;;4962660;28;20043;-68
2023/10/10 09:13:09;;;;;;;57.53;33.22;;;17.80;99.90;;;;;;4965072;28;20180;-69
2023/10/10 09:15:35;;;;;;;51.35;32.92;;;17.90;99.90;;;;;;4947705;28;20054;-66
2023/10/10 09:18:17;;;;;;;53.70;34.78;;;18.00;99.90;;;;;;4962468;28;20047;-69
2023/10/10 09:20:46;;;;;;;52.35;33.78;;;18.00;99.90;;;;;;4962017;28;20359;-66
2023/10/10 09:23:26;;;;;;;59.03;34.38;;;18.10;99.90;;;;;;4953766;28;20525;-69
2023/10/10 09:26:12;;;;;;;53.58;32.83;;;18.20;99.90;;;;;;4958871;28;20619;-70
2023/10/10 09:28:44;;;;;;;57.92;34.05;;;18.30;99.90;;;;;;4964622;28;20486;-68
2023/10/10 09:31:19;;;;;;;51.53;32.85;;;18.40;99.90;;;;;;4962247;28;20050;-66
2023/10/10 09:33:46;;;;;;;51.40;32.10;;;18.50;99.90;;;;;;4939334;29;20130;-72
2023/10/10 09:36:19;;;;;;;62.45;32.67;;;18.50;99.90;;;;;;4937393;28;20406;-72
2023/10/10 09:38:53;;;;;;;54.15;32.22;;;18.60;99.90;;;;;;4948519;28;20063;-66
2023/10/10 09:57:44;;;;;;;52.65;30.75;;;19.20;99.90;;;;;;4960351;28;20398;-67
2023/10/10 10:00:14;;;;;;;48.92;30.83;;;19.20;99.90;;;;;;4959624;28;20062;-66
2023/10/10 10:02:49;;;;;;;45.28;29.23;;;19.30;99.90;;;;;;4939605;28;20392;-68
2023/10/10 10:05:18;;;;;;;48.35;30.17;;;19.40;99.90;;;;;;4963733;28;20093;-68
2023/10/10 10:07:59;;;;;;;51.65;30.30;;;19.40;99.90;;;;;;4959642;28;20050;-73
2023/10/10 10:10:54;;;;;;;46.35;28.98;;;19.40;99.90;;;;;;4939746;29;20430;-68
2023/10/10 10:13:28;;;;;;;46.90;30.20;;;19.50;99.90;;;;;;4951351;28;20054;-65
2023/10/10 10:16:19;;;;;;;47.95;29.75;;;19.60;99.90;;;;;;4942378;28;20458;-68
2023/10/10 10:18:46;;;;;;;46.53;29.65;;;19.70;99.90;;;;;;4945541;28;20057;-68
2023/10/10 10:21:30;;;;;;;46.72;28.23;;;19.80;99.90;;;;;;4960963;28;20057;-67
2023/10/10 10:24:15;;;;;;;42.55;27.60;;;20.00;99.90;;;;;;4947229;28;20058;-69
2023/10/10 10:26:43;;;;;;;47.75;28.20;;;20.10;99.90;;;;;;4960056;28;20110;-67
2023/10/10 10:29:22;;;;;;;44.72;28.30;;;20.10;99.90;;;;;;4962738;28;20039;-68
2023/10/10 10:31:57;;;;;;;39.47;27.15;;;20.30;99.90;;;;;;4963412;28;20046;-69
2023/10/10 10:34:31;;;;;;;44.95;27.95;;;20.30;99.90;;;;;;4948218;28;20125;-66
2023/10/10 10:37:06;;;;;;;43.88;26.17;;;20.40;99.90;;;;;;4946567;28;20145;-68
2023/10/10 10:39:35;;;;;;;39.80;25.70;;;20.50;99.90;;;;;;4936490;29;20055;-68
2023/10/10 10:42:15;;;;;;;47.45;26.67;;;20.70;99.90;;;;;;4960704;28;20050;-69
2023/10/10 10:44:55;;;;;;;38.50;26.27;;;20.80;99.90;;;;;;4953814;28;20043;-65
2023/10/10 10:47:37;;;;;;;41.20;25.70;;;20.90;99.90;;;;;;4942755;28;20062;-70
2023/10/10 10:50:28;;;;;;;40.45;26.73;;;20.80;99.90;;;;;;4963710;28;20057;-68
2023/10/10 10:52:59;;;;;;;42.17;25.88;;;20.90;99.90;;;;;;4945582;28;20066;-68
2023/10/10 10:55:28;;;;;;;39.38;25.75;;;20.90;99.90;;;;;;4960729;28;20058;-69
2023/10/10 10:58:06;;;;;;;38.03;24.80;;;20.80;99.90;;;;;;4958554;28;20047;-68
2023/10/10 11:01:07;;;;;;;38.50;25.35;;;20.70;99.90;;;;;;4960016;28;20063;-68
2023/10/10 11:03:44;;;;;;;41.00;25.42;;;20.50;99.90;;;;;;4962179;28;20729;-67
2023/10/10 11:06:14;;;;;;;39.33;24.67;;;20.50;99.90;;;;;;4962989;28;20051;-69
2023/10/10 11:11:25;;;;;;;41.25;24.38;;;20.50;99.90;;;;;;4963296;28;20057;-72
2023/10/10 11:14:00;;;;;;;38.15;22.92;;;20.50;99.90;;;;;;4943547;28;20081;-68
2023/10/10 11:16:39;;;;;;;38.13;24.10;;;20.60;99.90;;;;;;4956615;28;20034;-66
2023/10/10 11:19:24;;;;;;;47.92;24.88;;;20.70;99.90;;;;;;4959075;28;20072;-66
2023/10/10 11:21:54;;;;;;;41.67;23.80;;;20.70;99.90;;;;;;4960683;28;20390;-67
2023/10/10 11:24:25;;;;;;;36.45;23.30;;;20.80;99.90;;;;;;4963227;28;20192;-69
2023/10/10 11:29:46;;;;;;;39.08;24.42;;;20.90;99.90;;;;;;4958754;28;20590;-68
2023/10/10 11:32:14;;;;;;;40.45;24.80;;;21.00;99.90;;;;;;4945067;28;20048;-68
2023/10/10 11:34:46;;;;;;;35.63;22.63;;;21.00;99.90;;;;;;4962782;28;20693;-67
2023/10/10 11:37:15;;;;;;;36.58;23.00;;;21.20;99.90;;;;;;4961089;28;20058;-66
2023/10/10 11:40:01;;;;;;;42.30;24.05;;;21.20;99.90;;;;;;4959247;28;20557;-67
2023/10/10 11:42:28;;;;;;;38.17;23.35;;;21.40;99.90;;;;;;4944892;28;20059;-68
2023/10/10 11:45:05;;;;;;;34.83;22.58;;;21.60;99.90;;;;;;4956232;28;20189;-67
2023/10/10 11:47:42;;;;;;;36.45;23.38;;;21.60;99.90;;;;;;4960403;28;20039;-68
2023/10/10 11:50:11;;;;;;;36.63;22.98;;;21.80;99.90;;;;;;4963106;28;20034;-67
2023/10/10 11:52:57;;;;;;;37.42;21.48;;;21.80;99.90;;;;;;4960119;28;20461;-68
2023/10/10 11:55:23;;;;;;;35.95;22.45;;;21.80;99.90;;;;;;4960579;28;20418;-68
2023/10/10 11:57:50;;;;;;;37.97;21.75;;;21.60;99.90;;;;;;4945567;28;20038;-68
2023/10/10 12:00:43;;;;;;;30.73;20.58;;;21.60;99.90;;;;;;4962285;28;20062;-68
2023/10/10 12:03:13;;;;;;;35.28;22.35;;;21.60;99.90;;;;;;4940673;28;20482;-68
2023/10/10 12:05:48;;;;;;;33.95;19.58;;;21.80;99.90;;;;;;4955606;28;20509;-68
2023/10/10 12:08:15;;;;;;;33.97;20.77;;;22.00;99.90;;;;;;4962926;28;20055;-69
2023/10/10 12:10:52;;;;;;;30.55;19.50;;;22.10;99.90;;;;;;4944371;28;20602;-68
2023/10/10 12:15:57;;;;;;;27.77;18.13;;;22.40;99.90;;;;;;4959991;28;20047;-69
2023/10/10 12:18:31;;;;;;;27.42;17.92;;;22.30;99.90;;;;;;4927486;29;20051;-68
2023/10/10 12:21:03;;;;;;;29.38;17.10;;;22.40;99.90;;;;;;4961449;28;20102;-68
2023/10/10 12:23:32;;;;;;;28.48;17.00;;;22.60;99.90;;;;;;4962512;28;20041;-70
2023/10/10 12:25:59;;;;;;;30.05;16.33;;;22.70;99.90;;;;;;4961101;28;20101;-69
2023/10/10 12:28:26;;;;;;;28.70;15.63;;;22.70;99.90;;;;;;4959432;28;20054;-71
2023/10/10 12:30:56;;;;;;;25.35;15.82;;;22.50;99.90;;;;;;4959821;28;20102;-68
2023/10/10 12:33:23;;;;;;;27.08;14.85;;;22.60;99.90;;;;;;4952194;28;20257;-68
2023/10/10 12:35:49;;;;;;;27.23;16.35;;;22.60;99.90;;;;;;4942267;29;20075;-69
2023/10/10 12:38:20;;;;;;;28.20;16.42;;;22.60;99.90;;;;;;4944014;28;20055;-70
2023/10/10 12:40:50;;;;;;;29.98;16.38;;;22.50;99.90;;;;;;4962281;28;20039;-70
2023/10/10 12:43:20;;;;;;;27.27;15.05;;;22.50;99.90;;;;;;4960742;28;20118;-73
2023/10/10 12:45:46;;;;;;;22.65;14.98;;;22.40;99.90;;;;;;4941925;29;20483;-69
2023/10/10 12:48:20;;;;;;;23.17;15.88;;;22.30;99.90;;;;;;4959257;28;20043;-68
2023/10/10 12:50:53;;;;;;;25.57;15.67;;;22.20;99.90;;;;;;4965180;28;20051;-71
2023/10/10 12:53:20;;;;;;;23.75;15.55;;;22.10;99.90;;;;;;4948225;28;20289;-69
2023/10/10 12:55:51;;;;;;;29.77;16.58;;;22.00;99.90;;;;;;4945671;29;20066;-70
2023/10/10 12:58:20;;;;;;;23.00;14.63;;;21.90;99.90;;;;;;4963064;28;20064;-69
2023/10/10 13:00:53;;;;;;;24.83;15.18;;;21.80;99.90;;;;;;4937252;28;20062;-68
2023/10/10 13:03:28;;;;;;;32.47;17.33;;;21.80;99.90;;;;;;4962318;28;20051;-69
2023/10/10 13:06:04;;;;;;;29.35;17.05;;;21.90;99.90;;;;;;4954472;28;20054;-69
2023/10/10 13:08:47;;;;;;;23.48;16.58;;;22.00;99.90;;;;;;4945266;29;20114;-70
2023/10/10 13:11:18;;;;;;;28.05;17.15;;;21.90;99.90;;;;;;4956500;28;20066;-68
2023/10/10 13:13:52;;;;;;;25.88;16.73;;;21.80;99.90;;;;;;4963051;28;20047;-70
2023/10/10 13:16:23;;;;;;;28.10;17.30;;;21.70;99.90;;;;;;4932087;28;20043;-69
2023/10/10 13:18:54;;;;;;;27.35;16.65;;;21.70;99.90;;;;;;4946092;28;20052;-69
2023/10/10 13:21:19;;;;;;;23.52;16.60;;;21.60;99.90;;;;;;4928766;29;20510;-68
2023/10/10 13:23:49;;;;;;;34.38;16.98;;;21.60;99.90;;;;;;4944554;29;20126;-70
2023/10/10 13:26:16;;;;;;;24.55;15.60;;;21.50;99.90;;;;;;4954426;28;20051;-69
2023/10/10 13:28:44;;;;;;;26.13;17.88;;;21.50;99.90;;;;;;4944531;29;20090;-69
2023/10/10 13:31:15;;;;;;;26.33;16.75;;;21.40;99.90;;;;;;4964014;28;20082;-69
2023/10/10 13:33:40;;;;;;;28.45;16.98;;;21.40;99.90;;;;;;4964526;28;20051;-69
2023/10/10 13:36:11;;;;;;;30.05;18.48;;;21.40;99.90;;;;;;4946413;28;20039;-70
2023/10/10 13:38:50;;;;;;;31.20;16.83;;;21.40;99.90;;;;;;4961985;28;20417;-68
2023/10/10 13:41:24;;;;;;;33.47;19.33;;;21.40;99.90;;;;;;4963366;28;20039;-69
2023/10/10 13:43:52;;;;;;;31.45;20.90;;;21.40;99.90;;;;;;4964584;28;20073;-69
2023/10/10 13:46:20;;;;;;;39.20;22.40;;;21.40;99.90;;;;;;4963057;28;20042;-69
2023/10/10 13:48:47;;;;;;;31.98;20.55;;;21.30;99.90;;;;;;4961312;28;20454;-69
2023/10/10 13:51:16;;;;;;;30.70;21.58;;;21.20;99.90;;;;;;4961403;28;20530;-69
2023/10/10 13:53:43;;;;;;;33.50;22.23;;;21.30;99.90;;;;;;4936768;29;20098;-71
2023/10/10 13:56:10;;;;;;;35.00;21.42;;;21.20;99.90;;;;;;4960938;28;20051;-68
2023/10/10 13:58:46;;;;;;;33.95;20.17;;;21.30;99.90;;;;;;4945132;28;20063;-70
2023/10/10 14:01:18;;;;;;;30.23;19.88;;;21.20;99.90;;;;;;4945911;28;20347;-70
2023/10/10 14:03:46;;;;;;;29.70;19.90;;;21.10;99.90;;;;;;4961669;28;20047;-69
2023/10/10 14:06:16;;;;;;;33.20;20.00;;;21.10;99.90;;;;;;4943394;29;20526;-70
2023/10/10 14:08:49;;;;;;;34.60;19.23;;;21.00;99.90;;;;;;4962705;28;20414;-69
2023/10/10 14:11:23;;;;;;;30.23;20.50;;;21.00;99.90;;;;;;4966325;28;20604;-70
2023/10/10 14:13:52;;;;;;;31.45;20.10;;;21.00;99.90;;;;;;4943062;28;20118;-69
2023/10/10 14:16:19;;;;;;;33.03;21.02;;;21.00;99.90;;;;;;4952585;28;20521;-70
2023/10/10 14:18:50;;;;;;;33.22;21.13;;;21.00;99.90;;;;;;4963902;28;20047;-68
2023/10/10 14:21:17;;;;;;;32.72;20.48;;;21.00;99.90;;;;;;4959060;28;20090;-68
2023/10/10 14:23:47;;;;;;;31.90;20.25;;;21.00;99.90;;;;;;4968596;28;20045;-68
2023/10/10 14:26:13;;;;;;;28.15;19.20;;;20.90;99.90;;;;;;4952606;28;20050;-67
2023/10/10 14:28:52;;;;;;;28.77;19.73;;;20.90;99.90;;;;;;4960952;28;20368;-68
2023/10/10 14:31:22;;;;;;;35.22;20.35;;;20.80;99.90;;;;;;4953114;28;20054;-67
2023/10/10 14:33:48;;;;;;;35.58;20.33;;;20.80;99.90;;;;;;4956927;28;20042;-69
2023/10/10 14:36:14;;;;;;;32.15;21.33;;;20.90;99.90;;;;;;4950290;28;20050;-69
2023/10/10 14:38:48;;;;;;;31.30;20.52;;;20.80;99.90;;;;;;4940441;28;20053;-69
2023/10/10 14:41:21;;;;;;;33.40;20.83;;;20.80;99.90;;;;;;4962146;28;20054;-67
2023/10/10 14:43:51;;;;;;;33.95;20.70;;;20.80;99.90;;;;;;4960563;28;20047;-69
2023/10/10 14:46:40;;;;;;;29.67;20.13;;;20.80;99.90;;;;;;4961304;28;20051;-69
2023/10/10 14:49:06;;;;;;;37.42;20.35;;;20.80;99.90;;;;;;4959533;28;20062;-69
2023/10/10 14:51:36;;;;;;;31.48;20.90;;;20.80;99.90;;;;;;4945572;28;20058;-68
2023/10/10 14:54:06;;;;;;;33.58;19.85;;;20.80;99.90;;;;;;4963169;28;20065;-68
2023/10/10 14:56:37;;;;;;;36.85;20.23;;;20.80;99.90;;;;;;4942064;28;20138;-69
2023/10/10 14:59:05;;;;;;;33.60;19.70;;;20.70;99.90;;;;;;4943904;28;20509;-69
2023/10/10 15:01:34;;;;;;;34.15;21.35;;;20.70;99.90;;;;;;4961378;28;20505;-68
2023/10/10 15:04:08;;;;;;;35.60;20.17;;;20.60;99.90;;;;;;4962235;28;20055;-67
2023/10/10 15:06:35;;;;;;;28.33;20.48;;;20.60;99.90;;;;;;4945899;28;20170;-71
2023/10/10 15:09:01;;;;;;;29.60;19.33;;;20.50;99.90;;;;;;4963587;28;20049;-68
2023/10/10 15:11:28;;;;;;;32.72;19.75;;;20.50;99.90;;;;;;4941441;29;20439;-69
2023/10/10 15:13:58;;;;;;;30.40;20.75;;;20.40;99.90;;;;;;4962552;28;20039;-69
2023/10/10 15:16:27;;;;;;;29.75;19.33;;;20.40;99.90;;;;;;4959510;28;20055;-68
2023/10/10 15:18:53;;;;;;;31.45;20.35;;;20.30;99.90;;;;;;4967015;28;20394;-68
2023/10/10 15:21:32;;;;;;;32.13;20.20;;;20.30;99.90;;;;;;4959808;28;20051;-68
2023/10/10 15:24:02;;;;;;;33.10;19.92;;;20.30;99.90;;;;;;4961510;28;20573;-67
2023/10/10 15:26:28;;;;;;;30.75;19.23;;;20.20;99.90;;;;;;4945332;28;20063;-68
2023/10/10 15:28:54;;;;;;;29.33;18.85;;;20.20;99.90;;;;;;4961984;28;20034;-68
2023/10/10 15:31:24;;;;;;;29.00;19.20;;;20.20;99.90;;;;;;4955347;28;20113;-70